KMOX/MOX METAR and TAF weather

Enter ICAO airport designator
Station Type Date Time Source
KMOX METAR 2022/11/30 10:55 UTC NOAA

KMOX 301055Z AUTO 30023G27KT 10SM M09/M15 A2995 RMK AO2


Station Type Date Time Source
KMOX Decoded METAR 2022/11/30 10:55 UTC NOAA

Morris, Morris Municipal Airport, MN, United States (KMOX) 45-34N 095-58W
Nov 30, 2022 - 05:55 AM EST / 2022.11.30 1055 UTC
Wind: from the WNW (300 degrees) at 26 MPH (23 KT) gusting to 31 MPH (27 KT):0
Visibility: 10 mile(s):0
Temperature: 15 F (-9 C)
Windchill: -4 F (-20 C):1
Dew Point: 5 F (-15 C)
Relative Humidity: 61%
Pressure (altimeter): 29.95 in. Hg (1014 hPa)
ob: KMOX 301055Z AUTO 30023G27KT 10SM M09/M15 A2995 RMK AO2
cycle: 11

Station Type Date Time Source
KMOX TAF UTC NOAA

Error!

Example: see airport list